Time;durP1;ratioP1;P1;durP2;ratioP2;P2;SDS_P1;SDS_P2;PMS_P1;PMS_P2;Temp;Humidity;BMP_temperature;BMP_pressure;BME280_temperature;BME280_humidity;BME280_pressure;Samples;Min_cycle;Max_cycle;Signal;HPM_P1;HPM_P2
2023/08/27 00:01:47;;;;;;;10.48;7.85;;;17.80;99.90;;;;;;5049053;28;20197;-89
2023/08/27 00:04:20;;;;;;;10.18;7.72;;;17.70;99.90;;;;;;5054890;28;20223;-89
2023/08/27 00:06:51;;;;;;;9.60;7.13;;;17.80;99.90;;;;;;5048852;28;20200;-89
2023/08/27 00:09:26;;;;;;;9.00;6.50;;;17.90;99.90;;;;;;5046503;28;20204;-88
2023/08/27 00:11:57;;;;;;;9.10;6.90;;;18.00;99.90;;;;;;5040016;28;20275;-89
2023/08/27 00:14:28;;;;;;;10.10;6.20;;;18.20;99.90;;;;;;5022251;28;20197;-89
2023/08/27 00:16:59;;;;;;;8.10;5.82;;;18.30;99.90;;;;;;5044096;28;20193;-91
2023/08/27 00:19:30;;;;;;;8.13;4.90;;;18.50;99.90;;;;;;5040276;28;20212;-89
2023/08/27 00:22:04;;;;;;;7.75;5.20;;;18.60;99.90;;;;;;5037423;28;20204;-89
2023/08/27 00:24:38;;;;;;;6.65;4.80;;;18.70;99.90;;;;;;5057633;28;20216;-88
2023/08/27 00:27:09;;;;;;;6.22;4.15;;;18.90;99.90;;;;;;5057666;28;20674;-90
2023/08/27 00:29:39;;;;;;;4.28;3.88;;;18.90;99.90;;;;;;5045736;28;20248;-91
2023/08/27 00:32:11;;;;;;;6.05;3.72;;;19.00;99.90;;;;;;5010127;28;20200;-90
2023/08/27 00:34:42;;;;;;;5.20;2.67;;;19.00;99.90;;;;;;5020359;28;20227;-89
2023/08/27 00:37:14;;;;;;;4.78;2.55;;;19.20;99.90;;;;;;5001966;28;20198;-90
2023/08/27 00:39:48;;;;;;;4.80;2.88;;;19.30;99.90;;;;;;5033020;28;20272;-89
2023/08/27 00:42:19;;;;;;;4.40;2.70;;;19.40;99.90;;;;;;5048997;28;20204;-88
2023/08/27 00:44:51;;;;;;;3.40;2.00;;;19.40;99.90;;;;;;5043376;28;20311;-89
2023/08/27 00:47:22;;;;;;;3.15;2.38;;;19.30;99.90;;;;;;5037729;28;20728;-88
2023/08/27 00:49:56;;;;;;;4.75;2.70;;;19.30;99.90;;;;;;5039689;28;20604;-89
2023/08/27 00:52:28;;;;;;;3.53;2.58;;;19.50;99.90;;;;;;5050738;28;20308;-90
2023/08/27 00:55:04;;;;;;;5.30;2.78;;;19.50;99.90;;;;;;5035827;28;20224;-89
2023/08/27 00:57:37;;;;;;;3.95;2.50;;;19.50;99.90;;;;;;5036089;28;20298;-89
2023/08/27 01:00:09;;;;;;;4.97;2.95;;;19.60;99.90;;;;;;5035857;28;20197;-90
2023/08/27 01:02:44;;;;;;;3.20;2.60;;;19.60;99.90;;;;;;5036230;28;20668;-90
2023/08/27 01:05:16;;;;;;;3.65;2.85;;;19.70;99.90;;;;;;5029719;28;20251;-90
2023/08/27 01:07:53;;;;;;;4.78;3.05;;;19.70;99.90;;;;;;5035101;28;20444;-90
2023/08/27 01:10:44;;;;;;;3.72;2.92;;;19.90;99.90;;;;;;5036244;28;20196;-89
2023/08/27 01:13:21;;;;;;;5.70;3.20;;;20.00;99.90;;;;;;5034967;28;20201;-90
2023/08/27 01:16:00;;;;;;;4.60;2.70;;;20.00;99.90;;;;;;5035908;28;20209;-90
2023/08/27 01:18:33;;;;;;;4.32;2.78;;;20.10;99.90;;;;;;5033907;28;20225;-89
2023/08/27 01:21:22;;;;;;;3.13;2.65;;;20.20;99.90;;;;;;5037450;28;20204;-87
2023/08/27 01:23:53;;;;;;;6.53;3.22;;;20.40;99.90;;;;;;5037183;28;20233;-90
2023/08/27 01:26:30;;;;;;;4.43;3.30;;;20.50;99.90;;;;;;5036159;28;20652;-88
2023/08/27 01:29:07;;;;;;;4.35;3.03;;;20.50;99.90;;;;;;5035894;28;20201;-89
2023/08/27 01:31:42;;;;;;;5.35;2.85;;;20.50;99.90;;;;;;5035092;28;20265;-90
2023/08/27 01:34:14;;;;;;;3.00;2.55;;;20.60;99.90;;;;;;5035631;28;20201;-89
2023/08/27 01:36:48;;;;;;;3.70;2.15;;;20.70;99.90;;;;;;5039445;28;20217;-91
2023/08/27 01:39:19;;;;;;;3.50;2.47;;;20.80;99.90;;;;;;5050217;28;20596;-90
2023/08/27 01:41:51;;;;;;;3.63;2.40;;;20.90;99.90;;;;;;5037749;28;20212;-89
2023/08/27 01:44:23;;;;;;;4.65;2.35;;;21.00;99.90;;;;;;5019733;28;20247;-90
2023/08/27 01:46:53;;;;;;;3.78;2.13;;;21.00;99.90;;;;;;5034609;28;20198;-90
2023/08/27 01:49:27;;;;;;;2.60;2.00;;;21.10;99.90;;;;;;5035688;28;20671;-89
2023/08/27 01:52:02;;;;;;;3.17;2.30;;;21.20;99.90;;;;;;5022250;28;20249;-91
2023/08/27 01:54:36;;;;;;;4.68;2.33;;;21.20;99.90;;;;;;5048002;28;20193;-91
2023/08/27 01:57:08;;;;;;;3.42;1.90;;;21.30;99.90;;;;;;5044861;28;20295;-91
2023/08/27 01:59:38;;;;;;;8.60;2.47;;;21.40;99.90;;;;;;5034274;28;20259;-90
2023/08/27 02:02:11;;;;;;;4.13;2.00;;;21.40;99.90;;;;;;5035290;28;20209;-89
2023/08/27 02:04:43;;;;;;;6.10;2.20;;;21.50;99.90;;;;;;5034295;28;20231;-89
2023/08/27 02:07:16;;;;;;;2.90;1.73;;;21.50;99.90;;;;;;5017889;28;20216;-92
2023/08/27 02:09:48;;;;;;;3.10;1.60;;;21.50;99.90;;;;;;5032154;28;20197;-90
2023/08/27 02:12:19;;;;;;;3.35;1.95;;;21.50;99.90;;;;;;5034797;28;20205;-90
2023/08/27 02:14:52;;;;;;;2.88;1.73;;;21.50;99.90;;;;;;5034767;28;20194;-90
2023/08/27 02:17:23;;;;;;;4.03;1.42;;;21.60;99.90;;;;;;5035003;28;20565;-90
2023/08/27 02:19:53;;;;;;;3.03;1.42;;;21.70;99.90;;;;;;5035831;28;20732;-89
2023/08/27 02:22:26;;;;;;;2.85;1.33;;;21.60;99.90;;;;;;5041132;28;20233;-89
2023/08/27 02:24:57;;;;;;;2.85;1.30;;;21.60;99.90;;;;;;5046249;28;20596;-89
2023/08/27 02:27:28;;;;;;;3.58;1.50;;;21.60;99.90;;;;;;5055533;28;20289;-92
2023/08/27 02:30:01;;;;;;;2.55;1.50;;;21.70;99.90;;;;;;5022426;28;20203;-91
2023/08/27 02:32:32;;;;;;;3.60;1.33;;;21.70;99.90;;;;;;5038081;28;20201;-89
2023/08/27 02:35:07;;;;;;;3.55;1.58;;;21.60;99.90;;;;;;5046107;28;20774;-91
2023/08/27 02:37:41;;;;;;;2.90;1.33;;;21.70;99.90;;;;;;5034746;28;20209;-91
2023/08/27 02:40:13;;;;;;;3.10;1.10;;;21.70;99.90;;;;;;5035244;28;20201;-90
2023/08/27 02:42:44;;;;;;;2.95;0.98;;;21.80;99.90;;;;;;5033346;28;20255;-91
2023/08/27 02:45:15;;;;;;;2.92;1.05;;;21.70;99.90;;;;;;5033148;28;20221;-90
2023/08/27 02:47:47;;;;;;;3.00;0.80;;;21.80;99.90;;;;;;5033782;28;20583;-90
2023/08/27 02:50:21;;;;;;;3.50;0.95;;;21.90;99.90;;;;;;5016108;28;20201;-90
2023/08/27 02:52:55;;;;;;;1.85;0.90;;;21.90;99.90;;;;;;5033961;28;20257;-89
2023/08/27 02:55:28;;;;;;;1.27;0.77;;;21.90;99.90;;;;;;5001934;28;20204;-90
2023/08/27 02:57:59;;;;;;;3.17;1.20;;;21.80;99.90;;;;;;5027449;28;20170;-91
2023/08/27 03:00:31;;;;;;;3.10;1.20;;;21.70;99.90;;;;;;5023302;28;20530;-90
2023/08/27 03:03:02;;;;;;;3.90;1.17;;;21.60;99.90;;;;;;5034926;28;20208;-89
2023/08/27 03:05:35;;;;;;;3.33;0.80;;;21.70;99.90;;;;;;5037288;28;20201;-88
2023/08/27 03:08:09;;;;;;;2.90;1.00;;;21.80;99.90;;;;;;5040817;28;20276;-87
2023/08/27 03:10:40;;;;;;;3.03;1.00;;;21.90;99.90;;;;;;5022393;28;20664;-90
2023/08/27 03:13:12;;;;;;;1.27;0.90;;;22.00;99.90;;;;;;5034182;28;20301;-91
2023/08/27 03:15:43;;;;;;;2.50;0.90;;;21.90;99.90;;;;;;5033350;28;20695;-89
2023/08/27 03:18:14;;;;;;;2.92;1.00;;;21.90;99.90;;;;;;5034202;28;20197;-88
2023/08/27 03:20:45;;;;;;;2.63;1.02;;;21.90;99.90;;;;;;5033475;28;20193;-91
2023/08/27 03:23:18;;;;;;;4.70;1.30;;;21.80;99.90;;;;;;5032429;28;20252;-88
2023/08/27 03:25:52;;;;;;;2.00;0.98;;;21.70;99.90;;;;;;5032930;28;20233;-91
2023/08/27 03:28:23;;;;;;;3.38;1.10;;;21.70;99.90;;;;;;5034343;28;20227;-89
2023/08/27 03:30:55;;;;;;;4.57;1.20;;;21.60;99.90;;;;;;5042010;28;20198;-89
2023/08/27 03:33:27;;;;;;;3.75;0.82;;;21.60;99.90;;;;;;5043956;28;20193;-91
2023/08/27 03:36:00;;;;;;;3.10;1.20;;;21.50;99.90;;;;;;5035280;28;20339;-91
2023/08/27 03:38:34;;;;;;;2.20;0.82;;;21.60;99.90;;;;;;5033459;28;20609;-90
2023/08/27 03:41:05;;;;;;;1.92;0.93;;;21.70;99.90;;;;;;5032528;28;20692;-90
2023/08/27 03:43:36;;;;;;;1.92;1.05;;;21.60;99.90;;;;;;5033835;28;20201;-89
2023/08/27 03:46:07;;;;;;;2.33;0.80;;;21.80;99.90;;;;;;5031403;28;20221;-89
2023/08/27 03:48:38;;;;;;;2.40;0.88;;;21.80;99.90;;;;;;5035613;28;20197;-90
2023/08/27 03:51:09;;;;;;;2.05;0.88;;;21.70;99.90;;;;;;5017385;28;20189;-89
2023/08/27 03:53:42;;;;;;;3.28;0.80;;;21.60;99.90;;;;;;5033156;28;20217;-90
2023/08/27 03:56:14;;;;;;;2.10;0.80;;;21.60;99.90;;;;;;5033201;28;20767;-91
2023/08/27 03:58:46;;;;;;;3.80;0.93;;;21.50;99.90;;;;;;5037789;28;20650;-91
2023/08/27 04:01:17;;;;;;;4.47;0.80;;;21.50;99.90;;;;;;5054347;28;20181;-92
2023/08/27 04:03:50;;;;;;;2.72;1.08;;;21.50;99.90;;;;;;5041996;28;20204;-91
2023/08/27 04:06:21;;;;;;;3.15;0.93;;;21.20;99.90;;;;;;5033087;28;20231;-91
2023/08/27 04:08:55;;;;;;;3.65;1.00;;;21.30;99.90;;;;;;5033577;28;20209;-91
2023/08/27 04:11:26;;;;;;;1.88;0.55;;;21.20;99.90;;;;;;5016364;28;20200;-92
2023/08/27 04:13:57;;;;;;;18.52;1.58;;;21.20;99.90;;;;;;5052905;28;20204;-90
2023/08/27 04:16:28;;;;;;;8.02;0.90;;;21.00;99.90;;;;;;5031548;28;20193;-89
2023/08/27 04:18:59;;;;;;;2.88;1.00;;;21.00;99.90;;;;;;5013156;28;20186;-90
2023/08/27 04:21:30;;;;;;;3.08;0.88;;;20.90;99.90;;;;;;5039843;28;20205;-90
2023/08/27 04:24:04;;;;;;;2.40;1.00;;;20.80;99.90;;;;;;5033528;28;20248;-82
2023/08/27 04:26:35;;;;;;;3.45;1.00;;;20.80;99.90;;;;;;5047882;28;20245;-88
2023/08/27 04:29:06;;;;;;;3.85;1.13;;;20.80;99.90;;;;;;5069624;28;20188;-90
2023/08/27 04:31:37;;;;;;;2.38;1.00;;;20.70;99.90;;;;;;5050646;28;20206;-91
2023/08/27 04:34:09;;;;;;;3.65;0.90;;;20.80;99.90;;;;;;5042681;28;20304;-91
2023/08/27 04:36:40;;;;;;;4.20;1.10;;;20.80;99.90;;;;;;5023326;28;20205;-91
2023/08/27 04:39:13;;;;;;;1.50;0.93;;;20.70;99.90;;;;;;5034170;28;20197;-92
2023/08/27 04:41:45;;;;;;;3.05;0.90;;;20.70;99.90;;;;;;5040273;28;20206;-91
2023/08/27 04:44:16;;;;;;;1.55;0.73;;;20.70;99.90;;;;;;5044119;28;20209;-90
2023/08/27 04:46:49;;;;;;;4.00;1.05;;;20.70;99.90;;;;;;5029463;28;20230;-89
2023/08/27 04:49:21;;;;;;;4.35;1.05;;;20.70;99.90;;;;;;5023981;28;20267;-92
2023/08/27 04:51:53;;;;;;;4.25;0.82;;;20.70;99.90;;;;;;5032816;28;20201;-92
2023/08/27 04:54:27;;;;;;;1.65;0.70;;;20.70;99.90;;;;;;5036108;28;20205;-92
2023/08/27 04:56:59;;;;;;;1.13;0.60;;;20.70;99.90;;;;;;5037841;28;20200;-90
2023/08/27 04:59:30;;;;;;;1.70;0.90;;;20.60;99.90;;;;;;5036205;28;20299;-89
2023/08/27 05:02:02;;;;;;;5.85;1.10;;;20.60;99.90;;;;;;5042667;28;20227;-92
2023/08/27 05:04:33;;;;;;;20.95;2.00;;;20.60;99.90;;;;;;5048832;28;20269;-90
2023/08/27 05:07:04;;;;;;;12.95;1.48;;;20.50;99.90;;;;;;5036388;28;20598;-88
2023/08/27 05:09:45;;;;;;;3.08;0.75;;;20.50;99.90;;;;;;5050085;28;20276;-93
2023/08/27 05:12:21;;;;;;;1.92;0.90;;;20.50;99.90;;;;;;5034002;28;20205;-93
2023/08/27 05:14:52;;;;;;;5.82;1.00;;;20.50;99.90;;;;;;5038264;28;20518;-92
2023/08/27 05:17:25;;;;;;;1.70;0.70;;;20.40;99.90;;;;;;5041401;28;20197;-91
2023/08/27 05:20:00;;;;;;;1.55;0.73;;;20.40;99.90;;;;;;5048447;28;20272;-90
2023/08/27 05:22:31;;;;;;;2.47;0.73;;;20.40;99.90;;;;;;5058362;28;20761;-92
2023/08/27 05:25:11;;;;;;;3.08;0.90;;;20.50;99.90;;;;;;5053496;28;20228;-93
2023/08/27 05:27:46;;;;;;;2.65;0.77;;;20.30;99.90;;;;;;4993484;28;20251;-92
2023/08/27 05:30:24;;;;;;;2.25;0.93;;;20.30;99.90;;;;;;5043172;28;20201;-90
2023/08/27 05:33:02;;;;;;;1.23;0.68;;;20.30;99.90;;;;;;5043178;28;20216;-91
2023/08/27 05:35:33;;;;;;;3.05;0.70;;;20.30;99.90;;;;;;5046019;28;20224;-91
2023/08/27 05:38:05;;;;;;;5.10;0.82;;;20.30;99.90;;;;;;5036884;28;20656;-91
2023/08/27 05:40:44;;;;;;;2.15;0.50;;;20.30;99.90;;;;;;5058063;28;20284;-88
2023/08/27 05:43:17;;;;;;;1.70;0.52;;;20.30;99.90;;;;;;5053675;28;20193;-90
2023/08/27 05:45:48;;;;;;;2.88;0.90;;;20.30;99.90;;;;;;5041859;28;20625;-89
2023/08/27 05:48:19;;;;;;;2.72;0.70;;;20.30;99.90;;;;;;5055484;28;20279;-87
2023/08/27 05:50:50;;;;;;;6.03;0.73;;;20.30;99.90;;;;;;5019569;28;20198;-89
2023/08/27 05:53:21;;;;;;;3.47;1.17;;;20.30;99.90;;;;;;5022655;28;20227;-89
2023/08/27 05:55:55;;;;;;;2.22;1.00;;;20.30;99.90;;;;;;5047282;28;20241;-90
2023/08/27 05:58:27;;;;;;;2.03;0.88;;;20.30;99.90;;;;;;5015423;28;20278;-88
2023/08/27 06:00:58;;;;;;;2.65;0.70;;;20.40;99.90;;;;;;5030671;28;20193;-90
2023/08/27 06:03:29;;;;;;;2.95;0.70;;;20.50;99.90;;;;;;5036368;28;20620;-87
2023/08/27 06:06:00;;;;;;;1.25;0.60;;;20.50;99.90;;;;;;5024355;28;20272;-85
2023/08/27 06:08:31;;;;;;;1.08;0.60;;;20.50;99.90;;;;;;5033282;28;20201;-83
2023/08/27 06:11:05;;;;;;;0.82;0.50;;;20.50;99.90;;;;;;5032940;28;20206;-86
2023/08/27 06:13:36;;;;;;;1.52;0.68;;;20.50;99.90;;;;;;5035260;28;20621;-88
2023/08/27 06:16:07;;;;;;;2.00;0.70;;;20.50;99.90;;;;;;5037213;28;20675;-87
2023/08/27 06:18:38;;;;;;;1.83;0.70;;;20.40;99.90;;;;;;5033998;28;20209;-90
2023/08/27 06:21:09;;;;;;;2.15;0.63;;;20.40;99.90;;;;;;5016800;28;20221;-88
2023/08/27 06:23:41;;;;;;;1.13;0.50;;;20.50;99.90;;;;;;5034628;28;20421;-87
2023/08/27 06:26:19;;;;;;;2.53;0.60;;;20.30;99.90;;;;;;5034179;28;20723;-87
2023/08/27 06:28:50;;;;;;;2.15;0.70;;;20.30;99.90;;;;;;5034408;28;20193;-87
2023/08/27 06:31:21;;;;;;;1.20;0.57;;;20.20;99.90;;;;;;5022960;28;20202;-88
2023/08/27 06:33:53;;;;;;;3.13;0.82;;;20.00;99.90;;;;;;5014726;28;20204;-87
2023/08/27 06:36:26;;;;;;;2.10;0.70;;;19.80;99.90;;;;;;5024093;28;20268;-87
2023/08/27 06:38:57;;;;;;;1.38;0.77;;;19.70;99.90;;;;;;5033550;28;20280;-87
2023/08/27 06:41:30;;;;;;;3.97;1.02;;;19.60;99.90;;;;;;5033063;28;20206;-86
2023/08/27 06:44:01;;;;;;;2.75;0.70;;;19.60;99.90;;;;;;5031879;28;20205;-86
2023/08/27 06:46:32;;;;;;;1.40;0.40;;;19.40;99.90;;;;;;5035101;28;20704;-86
2023/08/27 06:49:03;;;;;;;1.40;0.50;;;19.30;99.90;;;;;;5041578;28;20200;-86
2023/08/27 06:51:33;;;;;;;1.08;0.50;;;19.30;99.90;;;;;;5050863;28;20204;-87
2023/08/27 06:54:05;;;;;;;2.83;0.63;;;19.20;99.90;;;;;;5034300;28;20208;-86
2023/08/27 06:56:40;;;;;;;3.25;0.75;;;19.20;99.90;;;;;;5031886;28;20197;-87
2023/08/27 06:59:12;;;;;;;2.60;0.90;;;19.10;99.90;;;;;;5032099;28;20676;-87
2023/08/27 07:01:44;;;;;;;2.65;0.90;;;19.10;99.90;;;;;;5042716;28;20208;-81
2023/08/27 07:04:16;;;;;;;4.47;0.90;;;19.10;99.90;;;;;;5043429;28;20181;-87
2023/08/27 07:06:47;;;;;;;2.33;0.80;;;19.00;99.90;;;;;;5033626;28;20209;-88
2023/08/27 07:09:18;;;;;;;1.55;0.70;;;19.00;99.90;;;;;;5032282;28;20197;-86
2023/08/27 07:11:53;;;;;;;2.85;0.90;;;18.90;99.90;;;;;;5032788;28;20201;-86
2023/08/27 07:14:24;;;;;;;2.03;0.80;;;18.90;99.90;;;;;;5032262;28;20640;-86
2023/08/27 07:16:54;;;;;;;1.73;0.90;;;18.80;99.90;;;;;;5031229;28;20203;-87
2023/08/27 07:19:25;;;;;;;3.40;1.02;;;18.80;99.90;;;;;;5027529;28;20202;-86
2023/08/27 07:21:56;;;;;;;2.47;0.80;;;18.80;99.90;;;;;;5029192;28;20601;-85
2023/08/27 07:24:28;;;;;;;4.28;0.95;;;18.70;99.90;;;;;;5031931;28;20220;-84
2023/08/27 07:27:01;;;;;;;2.30;1.02;;;18.80;99.90;;;;;;5030358;28;20593;-84
2023/08/27 07:29:31;;;;;;;3.85;1.02;;;18.80;99.90;;;;;;5031456;28;20208;-84
2023/08/27 07:32:03;;;;;;;3.38;1.05;;;18.70;99.90;;;;;;5031477;28;20276;-84
2023/08/27 07:34:35;;;;;;;3.40;0.80;;;18.70;99.90;;;;;;5031359;28;20207;-85
2023/08/27 07:37:06;;;;;;;1.20;0.68;;;18.70;99.90;;;;;;5030948;28;20565;-84
2023/08/27 07:39:37;;;;;;;3.50;0.90;;;18.70;99.90;;;;;;5032577;28;20197;-83
2023/08/27 07:42:11;;;;;;;1.20;0.77;;;18.60;99.90;;;;;;5031002;28;20565;-85
2023/08/27 07:44:42;;;;;;;4.43;0.80;;;18.60;99.90;;;;;;5024428;28;20275;-85
2023/08/27 07:47:13;;;;;;;1.80;0.70;;;18.70;99.90;;;;;;5031815;28;20209;-83
2023/08/27 07:49:44;;;;;;;1.17;0.63;;;18.60;99.90;;;;;;5031421;28;20203;-84
2023/08/27 07:52:14;;;;;;;2.33;0.80;;;18.60;99.90;;;;;;5031202;28;20197;-85
2023/08/27 07:54:45;;;;;;;3.53;0.93;;;18.60;99.90;;;;;;5031875;28;20200;-85
2023/08/27 07:57:18;;;;;;;3.58;1.00;;;18.60;99.90;;;;;;5031628;28;20675;-84
2023/08/27 07:59:51;;;;;;;2.42;0.90;;;18.60;99.90;;;;;;5028720;28;20267;-84
2023/08/27 08:02:22;;;;;;;3.47;1.38;;;18.60;99.90;;;;;;5028597;28;20209;-84
2023/08/27 08:04:53;;;;;;;3.95;0.90;;;18.50;99.90;;;;;;5032080;28;20236;-85
2023/08/27 08:07:23;;;;;;;1.45;0.63;;;18.50;99.90;;;;;;5027321;28;21591;-85
2023/08/27 08:09:54;;;;;;;2.97;0.73;;;18.50;99.90;;;;;;5029871;28;20193;-85
2023/08/27 08:12:29;;;;;;;1.77;0.82;;;18.50;99.90;;;;;;5039291;28;20201;-84
2023/08/27 08:15:00;;;;;;;3.17;1.00;;;18.50;99.90;;;;;;5041147;28;20213;-84
2023/08/27 08:17:32;;;;;;;2.35;0.90;;;18.50;99.90;;;;;;5045661;28;20716;-84
2023/08/27 08:20:03;;;;;;;2.78;0.82;;;18.50;99.90;;;;;;5052418;28;20227;-84
2023/08/27 08:22:33;;;;;;;3.92;0.95;;;18.50;99.90;;;;;;5054064;28;20224;-85
2023/08/27 08:25:06;;;;;;;3.60;1.05;;;18.50;99.90;;;;;;5036034;28;20198;-85
2023/08/27 08:27:41;;;;;;;2.35;1.10;;;18.50;99.90;;;;;;5025668;28;20236;-86
2023/08/27 08:30:13;;;;;;;2.15;0.82;;;18.50;99.90;;;;;;5033305;28;20213;-85
2023/08/27 08:32:44;;;;;;;1.83;1.00;;;18.50;99.90;;;;;;5034510;28;20212;-85
2023/08/27 08:35:14;;;;;;;3.13;1.30;;;18.50;99.90;;;;;;5035234;28;20203;-85
2023/08/27 08:37:45;;;;;;;1.23;1.02;;;18.60;99.90;;;;;;5042537;28;20582;-85
2023/08/27 08:40:18;;;;;;;2.30;1.20;;;18.50;99.90;;;;;;5037997;28;20225;-84
2023/08/27 08:42:57;;;;;;;2.35;0.95;;;18.50;99.90;;;;;;5034901;28;20194;-84
2023/08/27 08:45:34;;;;;;;3.38;1.00;;;18.50;99.90;;;;;;5034959;28;20189;-84
2023/08/27 08:48:08;;;;;;;2.67;1.08;;;18.40;99.90;;;;;;5034879;28;20221;-83
2023/08/27 08:50:39;;;;;;;2.10;1.50;;;18.40;99.90;;;;;;5035217;28;20189;-84
2023/08/27 08:53:16;;;;;;;4.68;1.10;;;18.40;99.90;;;;;;5039294;28;20201;-83
2023/08/27 08:55:50;;;;;;;1.05;0.95;;;18.40;99.90;;;;;;5034295;28;20197;-84
2023/08/27 08:58:24;;;;;;;2.65;1.20;;;18.40;99.90;;;;;;5033346;28;20969;-83
2023/08/27 09:00:55;;;;;;;4.03;1.30;;;18.30;99.90;;;;;;5031481;28;20189;-84
2023/08/27 09:03:27;;;;;;;2.45;1.30;;;18.30;99.90;;;;;;5030766;28;20197;-83
2023/08/27 09:05:59;;;;;;;4.55;1.10;;;18.30;99.90;;;;;;5042655;28;20194;-84
2023/08/27 09:08:32;;;;;;;4.03;1.42;;;18.30;99.90;;;;;;5042017;28;20223;-85
2023/08/27 09:11:03;;;;;;;2.45;1.30;;;18.30;99.90;;;;;;5032340;28;20197;-82
2023/08/27 09:13:37;;;;;;;3.75;1.33;;;18.30;99.90;;;;;;5035903;28;20185;-84
2023/08/27 09:16:08;;;;;;;3.90;1.30;;;18.30;99.90;;;;;;5043532;28;20207;-85
2023/08/27 09:18:39;;;;;;;2.58;1.30;;;18.30;99.90;;;;;;5040546;28;20565;-84
2023/08/27 09:21:10;;;;;;;3.17;1.15;;;18.30;99.90;;;;;;5033844;28;20553;-84
2023/08/27 09:23:41;;;;;;;2.10;1.30;;;18.30;99.90;;;;;;5033223;28;20596;-84
2023/08/27 09:26:13;;;;;;;3.42;1.30;;;18.20;99.90;;;;;;5024711;28;20204;-83
2023/08/27 09:28:46;;;;;;;4.78;1.60;;;18.20;99.90;;;;;;5033310;28;20190;-84
2023/08/27 09:31:40;;;;;;;3.58;1.50;;;18.20;99.90;;;;;;5021012;28;20201;-85
2023/08/27 09:34:12;;;;;;;2.40;1.38;;;18.20;99.90;;;;;;5032811;28;20284;-86
2023/08/27 09:36:43;;;;;;;3.35;1.30;;;18.20;99.90;;;;;;5033712;28;20190;-84
2023/08/27 09:39:15;;;;;;;3.63;1.48;;;18.20;99.90;;;;;;5040465;28;21073;-83
2023/08/27 09:41:46;;;;;;;3.30;1.48;;;18.20;99.90;;;;;;5033052;28;20202;-83
2023/08/27 09:44:19;;;;;;;2.63;1.30;;;18.20;99.90;;;;;;5033491;28;20196;-84
2023/08/27 09:46:51;;;;;;;1.73;1.30;;;18.20;99.90;;;;;;5032847;28;20228;-84
2023/08/27 09:49:42;;;;;;;1.73;1.20;;;18.20;99.90;;;;;;5043003;28;20209;-84
2023/08/27 09:52:15;;;;;;;2.65;1.30;;;18.10;99.90;;;;;;5042304;28;20198;-85
2023/08/27 09:54:49;;;;;;;3.17;1.45;;;18.10;99.90;;;;;;5044204;28;20228;-86
2023/08/27 09:57:21;;;;;;;3.67;1.27;;;18.10;99.90;;;;;;5043156;28;20189;-84
2023/08/27 10:00:11;;;;;;;2.85;1.40;;;18.10;99.90;;;;;;5040273;28;20205;-85
2023/08/27 10:02:50;;;;;;;2.65;1.20;;;18.10;99.90;;;;;;5041013;28;20738;-86
2023/08/27 10:05:31;;;;;;;3.38;1.50;;;18.10;99.90;;;;;;5038584;28;20268;-85
2023/08/27 10:08:03;;;;;;;2.70;1.65;;;18.10;99.90;;;;;;5046220;28;20285;-85
2023/08/27 10:10:38;;;;;;;3.05;1.42;;;18.10;99.90;;;;;;5053033;28;20228;-84
2023/08/27 10:13:11;;;;;;;3.10;1.63;;;18.10;99.90;;;;;;5045004;28;20219;-85
2023/08/27 10:15:45;;;;;;;2.80;1.55;;;18.00;99.90;;;;;;5022332;28;20376;-84
2023/08/27 10:18:19;;;;;;;2.05;1.13;;;18.00;99.90;;;;;;5034448;28;20201;-83
2023/08/27 10:20:54;;;;;;;2.35;1.10;;;18.00;99.90;;;;;;5032545;28;20199;-83
2023/08/27 10:23:26;;;;;;;2.85;1.40;;;18.00;99.90;;;;;;5037625;28;20311;-83
2023/08/27 10:26:05;;;;;;;3.47;1.23;;;17.90;99.90;;;;;;5041649;28;20221;-83
2023/08/27 10:28:37;;;;;;;2.33;1.38;;;17.90;99.90;;;;;;5035282;28;20233;-85
2023/08/27 10:31:11;;;;;;;3.85;1.30;;;17.90;99.90;;;;;;5049161;23;20232;-84
2023/08/27 10:33:42;;;;;;;1.65;1.20;;;17.80;99.90;;;;;;5036464;28;20220;-85
2023/08/27 10:36:20;;;;;;;4.80;1.52;;;17.80;99.90;;;;;;5035224;28;20575;-85
2023/08/27 10:38:53;;;;;;;2.90;1.65;;;17.80;99.90;;;;;;5041862;28;20231;-83
2023/08/27 10:41:29;;;;;;;1.70;1.27;;;17.90;99.90;;;;;;5044381;28;20579;-87
2023/08/27 10:44:04;;;;;;;2.45;1.35;;;17.80;99.90;;;;;;5038193;28;20272;-82
2023/08/27 10:46:38;;;;;;;2.60;1.33;;;17.80;99.90;;;;;;5039548;28;20252;-84
2023/08/27 10:49:21;;;;;;;2.95;1.27;;;17.80;99.90;;;;;;5042737;28;20200;-83
2023/08/27 10:51:55;;;;;;;3.03;1.27;;;17.80;99.90;;;;;;5040583;28;20233;-83
2023/08/27 10:54:28;;;;;;;4.22;1.60;;;17.80;99.90;;;;;;5040528;28;20198;-84
2023/08/27 10:57:17;;;;;;;2.53;1.48;;;17.80;99.90;;;;;;5054242;28;20202;-84
2023/08/27 10:59:48;;;;;;;3.40;1.40;;;17.80;99.90;;;;;;5046158;28;20200;-85
2023/08/27 11:02:21;;;;;;;3.38;1.50;;;17.70;99.90;;;;;;5043221;28;20193;-83
2023/08/27 11:04:54;;;;;;;3.20;1.50;;;17.70;99.90;;;;;;5039103;28;20781;-85
2023/08/27 11:07:27;;;;;;;2.20;1.20;;;17.70;99.90;;;;;;5036923;28;20688;-84
2023/08/27 11:10:04;;;;;;;3.78;1.77;;;17.70;99.90;;;;;;5034932;28;20196;-85
2023/08/27 11:12:40;;;;;;;4.38;1.55;;;17.70;99.90;;;;;;5012903;28;20198;-84
2023/08/27 11:15:15;;;;;;;4.68;1.75;;;17.70;99.90;;;;;;5036647;28;20189;-84
2023/08/27 11:17:49;;;;;;;3.95;1.50;;;17.70;99.90;;;;;;5016526;28;20674;-85
2023/08/27 11:20:25;;;;;;;5.93;1.70;;;17.60;99.90;;;;;;5022871;28;20193;-84
2023/08/27 11:23:00;;;;;;;2.45;1.40;;;17.60;99.90;;;;;;5026554;28;20556;-82
2023/08/27 11:25:33;;;;;;;3.53;1.10;;;17.60;99.90;;;;;;5029778;28;20188;-83
2023/08/27 11:28:09;;;;;;;3.08;1.40;;;17.60;99.90;;;;;;5036989;28;20263;-85
2023/08/27 11:30:41;;;;;;;1.75;1.33;;;17.60;99.90;;;;;;5048600;28;20236;-84
2023/08/27 11:33:22;;;;;;;3.17;1.77;;;17.60;99.90;;;;;;5051129;28;20647;-82
2023/08/27 11:35:53;;;;;;;3.85;1.95;;;17.50;99.90;;;;;;5052204;28;20185;-84
2023/08/27 11:38:28;;;;;;;4.38;1.92;;;17.50;99.90;;;;;;5049346;28;20200;-87
2023/08/27 11:41:02;;;;;;;3.72;2.10;;;17.50;99.90;;;;;;5052902;28;20245;-83
2023/08/27 11:43:33;;;;;;;4.07;1.80;;;17.50;99.90;;;;;;5047297;28;20204;-83
2023/08/27 11:46:04;;;;;;;5.05;2.15;;;17.40;99.90;;;;;;5050420;28;20204;-82
2023/08/27 11:48:48;;;;;;;2.85;1.90;;;17.50;99.90;;;;;;5050503;28;20232;-83
2023/08/27 11:51:19;;;;;;;3.65;1.88;;;17.40;99.90;;;;;;5051577;28;20236;-83
2023/08/27 11:53:50;;;;;;;3.00;1.80;;;17.40;99.90;;;;;;5050550;28;20260;-83
2023/08/27 11:56:21;;;;;;;3.85;2.08;;;17.40;99.90;;;;;;5050159;28;20188;-84
2023/08/27 11:58:53;;;;;;;4.57;2.30;;;17.40;99.90;;;;;;5038187;28;20197;-83
2023/08/27 12:01:24;;;;;;;3.38;2.13;;;17.40;99.90;;;;;;5033348;28;20199;-82
2023/08/27 12:03:57;;;;;;;3.30;1.90;;;17.40;99.90;;;;;;5051020;28;20188;-83
2023/08/27 12:06:30;;;;;;;4.45;2.30;;;17.30;99.90;;;;;;5053581;28;20268;-83
2023/08/27 12:09:02;;;;;;;3.35;2.25;;;17.30;99.90;;;;;;5054723;28;20307;-84
2023/08/27 12:11:33;;;;;;;3.10;2.20;;;17.30;99.90;;;;;;5052690;28;20267;-84
2023/08/27 12:14:07;;;;;;;2.67;2.00;;;17.20;99.90;;;;;;5058974;28;20203;-86
2023/08/27 12:16:38;;;;;;;4.78;2.17;;;17.20;99.90;;;;;;5043234;28;20209;-86
2023/08/27 12:19:13;;;;;;;4.32;1.80;;;17.20;99.90;;;;;;5049721;28;20627;-86
2023/08/27 12:21:52;;;;;;;3.63;1.70;;;17.10;99.90;;;;;;5055413;28;20196;-83
2023/08/27 12:24:35;;;;;;;2.28;1.50;;;17.10;99.90;;;;;;5054899;28;20220;-87
2023/08/27 12:27:07;;;;;;;4.38;1.90;;;17.10;99.90;;;;;;5056499;28;20193;-86
2023/08/27 12:29:39;;;;;;;3.85;2.00;;;17.10;99.90;;;;;;5058044;28;20286;-86
2023/08/27 12:32:15;;;;;;;3.15;2.00;;;17.10;99.90;;;;;;5060489;28;20543;-88
2023/08/27 12:34:49;;;;;;;4.07;2.17;;;17.10;99.90;;;;;;5057763;28;20192;-86
2023/08/27 12:37:21;;;;;;;3.35;1.67;;;17.10;99.90;;;;;;5052937;28;20199;-83
2023/08/27 12:39:52;;;;;;;2.00;1.67;;;17.10;99.90;;;;;;5045496;28;20268;-84
2023/08/27 12:42:25;;;;;;;3.75;2.10;;;17.00;99.90;;;;;;5046509;28;20209;-86
2023/08/27 12:44:57;;;;;;;4.80;2.10;;;17.00;99.90;;;;;;5036293;28;20259;-86
2023/08/27 12:47:27;;;;;;;2.80;1.92;;;17.00;99.90;;;;;;5054381;28;20215;-83
2023/08/27 12:50:02;;;;;;;3.83;2.20;;;16.90;99.90;;;;;;5055033;28;20196;-85
2023/08/27 12:52:47;;;;;;;3.85;2.30;;;16.90;99.90;;;;;;5059279;28;20200;-88
2023/08/27 12:55:19;;;;;;;3.45;1.95;;;16.80;99.90;;;;;;5050414;28;20215;-87
2023/08/27 12:57:50;;;;;;;4.05;2.22;;;16.80;99.90;;;;;;5056980;28;20605;-85
2023/08/27 13:00:22;;;;;;;5.10;2.20;;;16.80;99.90;;;;;;5075692;28;20206;-86
2023/08/27 13:02:52;;;;;;;2.95;2.17;;;16.80;99.90;;;;;;5057251;28;20605;-86
2023/08/27 13:05:27;;;;;;;2.92;1.98;;;16.70;99.90;;;;;;5071945;28;20203;-87
2023/08/27 13:08:00;;;;;;;3.78;2.10;;;16.70;99.90;;;;;;5050642;28;20220;-86
2023/08/27 13:10:31;;;;;;;3.30;2.17;;;16.60;99.90;;;;;;5063078;28;20243;-85
2023/08/27 13:13:11;;;;;;;4.25;2.55;;;16.60;99.90;;;;;;5057633;28;20204;-87
2023/08/27 13:15:42;;;;;;;4.28;2.50;;;16.60;99.90;;;;;;5053737;28;20191;-86